createdAt,value
2023-03-04T00:00:54.529Z,97.38
2023-03-04T00:01:54.542Z,97.17
2023-03-04T00:02:55.641Z,97.28
2023-03-04T00:03:54.568Z,97.07
2023-03-04T00:04:54.696Z,97.07
2023-03-04T00:05:54.515Z,96.86
2023-03-04T00:06:54.495Z,97.07
2023-03-04T00:07:54.486Z,97.28
2023-03-04T00:08:54.539Z,96.86
2023-03-04T00:09:54.451Z,97.17
2023-03-04T00:10:54.503Z,97.49
2023-03-04T00:11:54.447Z,97.38
2023-03-04T00:12:54.482Z,97.49
2023-03-04T00:13:54.456Z,97.17
2023-03-04T00:14:54.515Z,97.49
2023-03-04T00:15:54.440Z,97.07
2023-03-04T00:16:54.399Z,97.28
2023-03-04T00:17:54.430Z,97.17
2023-03-04T00:18:54.428Z,97.59
2023-03-04T00:19:54.385Z,97.59
2023-03-04T00:20:54.388Z,97.59
2023-03-04T00:21:54.376Z,97.49
2023-03-04T00:22:54.395Z,97.28
2023-03-04T00:23:54.373Z,97.38
2023-03-04T00:24:54.377Z,97.17
2023-03-04T00:25:54.364Z,97.59
2023-03-04T00:26:54.359Z,97.38
2023-03-04T00:27:54.539Z,97.38
2023-03-04T00:28:54.324Z,97.28
2023-03-04T00:29:54.309Z,97.28
2023-03-04T00:30:54.296Z,97.24
2023-03-04T00:31:54.373Z,97.34
2023-03-04T00:32:54.427Z,97.44
2023-03-04T00:33:54.290Z,97.49
2023-03-04T00:34:54.326Z,97.34
2023-03-04T00:35:54.330Z,97.24
2023-03-04T00:36:54.268Z,97.34
2023-03-04T00:37:54.277Z,96.82
2023-03-04T00:38:54.267Z,97.17
2023-03-04T00:39:54.259Z,96.97
2023-03-04T00:40:54.858Z,97.13
2023-03-04T00:41:54.238Z,97.38
2023-03-04T00:42:54.224Z,96.97
2023-03-04T00:43:54.221Z,96.82
2023-03-04T00:44:54.187Z,97.13
2023-03-04T00:45:54.246Z,97.03
2023-03-04T00:46:54.195Z,96.82
2023-03-04T00:47:54.237Z,97.17
2023-03-04T00:48:54.170Z,96.61
2023-03-04T00:49:54.180Z,96.61
2023-03-04T00:50:54.260Z,96.71
2023-03-04T00:51:54.241Z,96.36
2023-03-04T00:52:54.183Z,96.61
2023-03-04T00:53:54.149Z,96.30
2023-03-04T00:54:54.153Z,96.40
2023-03-04T00:55:54.138Z,96.71
2023-03-04T00:56:54.149Z,96.71
2023-03-04T00:57:54.134Z,96.92
2023-03-04T00:58:54.094Z,96.71
2023-03-04T00:59:54.160Z,96.71
2023-03-04T01:00:54.086Z,96.40
2023-03-04T01:01:54.095Z,96.40
2023-03-04T01:02:54.084Z,96.40
2023-03-04T01:03:54.112Z,96.50
2023-03-04T01:04:54.059Z,96.82
2023-03-04T01:05:54.049Z,96.61
2023-03-04T01:06:54.028Z,96.92
2023-03-04T01:07:54.021Z,96.82
2023-03-04T01:08:54.035Z,96.71
2023-03-04T01:09:54.001Z,96.25
2023-03-04T01:10:54.010Z,95.62
2023-03-04T01:11:53.997Z,96.15
2023-03-04T01:12:53.987Z,95.73
2023-03-04T01:13:53.995Z,95.94
2023-03-04T01:14:53.997Z,95.62
2023-03-04T01:15:53.961Z,95.83
2023-03-04T01:16:53.993Z,96.04
2023-03-04T01:17:54.008Z,95.21
2023-03-04T01:18:53.930Z,94.96
2023-03-04T01:19:53.938Z,95.06
2023-03-04T01:20:53.927Z,94.96
2023-03-04T01:21:54.941Z,94.90
2023-03-04T01:22:53.909Z,94.92
2023-03-04T01:23:53.886Z,94.54
2023-03-04T01:24:53.899Z,94.43
2023-03-04T01:25:53.915Z,94.33
2023-03-04T01:26:53.929Z,94.33
2023-03-04T01:27:53.928Z,94.49
2023-03-04T01:28:53.856Z,94.54
2023-03-04T01:29:53.842Z,94.49
2023-03-04T01:30:53.886Z,94.43
2023-03-04T01:31:53.868Z,94.64
2023-03-04T01:32:53.862Z,94.43
2023-03-04T01:33:53.813Z,94.96
2023-03-04T01:34:53.804Z,94.85
2023-03-04T01:35:53.849Z,94.75
2023-03-04T01:36:53.799Z,94.96
2023-03-04T01:37:53.806Z,94.85
2023-03-04T01:38:53.768Z,94.85
2023-03-04T01:39:53.798Z,94.85
2023-03-04T01:40:53.767Z,94.75
2023-03-04T01:41:53.765Z,94.96
2023-03-04T01:42:53.752Z,94.96
2023-03-04T01:43:53.724Z,94.81
2023-03-04T01:44:53.762Z,93.87
2023-03-04T01:45:53.732Z,93.98
2023-03-04T01:46:53.740Z,94.08
2023-03-04T01:47:53.797Z,94.29
2023-03-04T01:48:54.039Z,93.77
2023-03-04T01:49:53.686Z,93.87
2023-03-04T01:50:53.792Z,93.98
2023-03-04T01:51:53.681Z,94.08
2023-03-04T01:52:53.715Z,93.98
2023-03-04T01:53:53.707Z,93.77
2023-03-04T01:54:53.681Z,93.98
2023-03-04T01:55:53.658Z,93.98
2023-03-04T01:56:53.637Z,93.98
2023-03-04T01:57:53.674Z,93.77
2023-03-04T01:58:53.708Z,93.56
2023-03-04T01:59:53.605Z,93.98
2023-03-04T02:00:53.615Z,94.08
2023-03-04T02:01:53.652Z,93.77
2023-03-04T02:02:53.605Z,93.98
2023-03-04T02:03:53.656Z,93.66
2023-03-04T02:04:53.582Z,93.66
2023-03-04T02:05:53.595Z,94.29
2023-03-04T02:06:53.613Z,93.98
2023-03-04T02:07:53.559Z,93.98
2023-03-04T02:08:53.604Z,94.29
2023-03-04T02:09:53.533Z,94.08
2023-03-04T02:10:53.544Z,94.29
2023-03-04T02:11:53.528Z,93.87
2023-03-04T02:12:53.518Z,93.98
2023-03-04T02:13:53.518Z,94.08
2023-03-04T02:14:53.518Z,94.08
2023-03-04T02:15:53.520Z,93.98
2023-03-04T02:16:53.478Z,93.87
2023-03-04T02:17:53.475Z,93.77
2023-03-04T02:18:54.060Z,94.14
2023-03-04T02:19:53.562Z,93.31
2023-03-04T02:20:53.446Z,93.35
2023-03-04T02:21:53.459Z,93.20
2023-03-04T02:22:54.242Z,93.20
2023-03-04T02:23:53.554Z,93.41
2023-03-04T02:24:53.431Z,92.79
2023-03-04T02:25:53.443Z,92.58
2023-03-04T02:26:53.421Z,92.79
2023-03-04T02:27:53.401Z,92.68
2023-03-04T02:28:53.416Z,92.99
2023-03-04T02:29:53.391Z,92.58
2023-03-04T02:30:53.410Z,92.79
2023-03-04T02:31:53.378Z,92.68
2023-03-04T02:32:53.356Z,92.79
2023-03-04T02:33:53.357Z,92.79
2023-03-04T02:34:54.173Z,92.62
2023-03-04T02:35:53.410Z,92.68
2023-03-04T02:36:53.326Z,92.58
2023-03-04T02:37:53.334Z,92.58
2023-03-04T02:38:53.324Z,92.72
2023-03-04T02:39:53.302Z,92.06
2023-03-04T02:40:53.301Z,91.96
2023-03-04T02:41:53.323Z,91.96
2023-03-04T02:42:53.702Z,91.85
2023-03-04T02:43:53.279Z,92.16
2023-03-04T02:44:53.271Z,92.06
2023-03-04T02:45:53.258Z,92.37
2023-03-04T02:46:53.356Z,92.37
2023-03-04T02:47:53.721Z,92.68
2023-03-04T02:48:53.256Z,92.47
2023-03-04T02:49:53.253Z,92.37
2023-03-04T02:50:53.231Z,91.50
2023-03-04T02:51:53.288Z,90.87
2023-03-04T02:52:53.217Z,90.31
2023-03-04T02:53:53.299Z,90.10
2023-03-04T02:54:53.198Z,89.89
2023-03-04T02:55:53.201Z,89.27
2023-03-04T02:56:54.176Z,89.75
2023-03-04T02:57:53.194Z,89.06
2023-03-04T02:58:53.194Z,89.37
2023-03-04T02:59:53.175Z,89.58
2023-03-04T03:00:53.157Z,89.64
2023-03-04T03:01:53.330Z,89.33
2023-03-04T03:02:53.194Z,89.02
2023-03-04T03:03:53.177Z,88.60
2023-03-04T03:04:53.114Z,88.92
2023-03-04T03:05:53.142Z,88.19
2023-03-04T03:06:53.121Z,89.02
2023-03-04T03:07:53.225Z,88.60
2023-03-04T03:08:53.104Z,87.32
2023-03-04T03:09:53.087Z,87.21
2023-03-04T03:10:53.078Z,87.15
2023-03-04T03:11:53.101Z,87.15
2023-03-04T03:12:53.116Z,86.90
2023-03-04T03:13:53.114Z,87.52
2023-03-04T03:14:53.078Z,87.42
2023-03-04T03:15:53.116Z,87.01
2023-03-04T03:16:53.043Z,87.32
2023-03-04T03:17:53.029Z,87.01
2023-03-04T03:18:53.043Z,87.42
2023-03-04T03:19:53.089Z,87.01
2023-03-04T03:20:53.000Z,86.59
2023-03-04T03:21:52.996Z,86.38
2023-03-04T03:22:52.978Z,86.59
2023-03-04T03:23:52.994Z,86.69
2023-03-04T03:24:53.022Z,86.17
2023-03-04T03:25:52.974Z,86.69
2023-03-04T03:26:52.966Z,86.49
2023-03-04T03:27:53.066Z,86.49
2023-03-04T03:28:52.950Z,86.69
2023-03-04T03:29:52.928Z,86.69
2023-03-04T03:30:53.058Z,86.27
2023-03-04T03:31:53.017Z,86.59
2023-03-04T03:32:52.963Z,85.44
2023-03-04T03:33:52.898Z,85.34
2023-03-04T03:34:53.032Z,85.65
2023-03-04T03:35:52.989Z,85.55
2023-03-04T03:36:52.911Z,85.44
2023-03-04T03:37:52.992Z,85.44
2023-03-04T03:38:52.885Z,85.55
2023-03-04T03:39:52.867Z,85.61
2023-03-04T03:40:52.837Z,85.51
2023-03-04T03:41:52.881Z,85.34
2023-03-04T03:42:52.841Z,85.55
2023-03-04T03:43:53.500Z,85.41
2023-03-04T03:44:52.806Z,85.65
2023-03-04T03:45:52.874Z,85.34
2023-03-04T03:46:52.812Z,85.55
2023-03-04T04:02:53.367Z,86.52
2023-03-04T04:03:53.302Z,86.73
2023-03-04T04:04:53.300Z,86.73
2023-03-04T04:05:53.278Z,86.52
2023-03-04T04:06:53.294Z,86.73
2023-03-04T04:07:54.138Z,85.96
2023-03-04T04:08:53.280Z,85.86
2023-03-04T04:09:53.237Z,85.86
2023-03-04T04:10:53.250Z,85.44
2023-03-04T04:11:53.247Z,85.44
2023-03-04T04:12:53.247Z,85.44
2023-03-04T04:13:53.236Z,85.44
2023-03-04T04:14:53.217Z,85.72
2023-03-04T04:15:54.350Z,85.24
2023-03-04T04:16:54.364Z,85.41
2023-03-04T04:17:54.336Z,85.34
2023-03-04T04:18:54.350Z,85.30
2023-03-04T04:19:54.324Z,85.41
2023-03-04T04:20:54.344Z,85.44
2023-03-04T04:21:54.319Z,85.41
2023-03-04T04:22:54.328Z,85.55
2023-03-04T04:23:54.292Z,85.55
2023-03-04T04:24:55.264Z,85.44
2023-03-04T04:25:54.278Z,85.44
2023-03-04T04:27:26.962Z,85.44
2023-03-04T04:27:54.243Z,85.55
2023-03-04T04:28:54.256Z,86.13
2023-03-04T04:29:54.247Z,85.96
2023-03-04T04:30:54.277Z,85.65
2023-03-04T04:31:54.240Z,85.65
2023-03-04T04:32:54.232Z,86.55
2023-03-04T04:33:54.217Z,86.55
2023-03-04T04:34:54.204Z,86.34
2023-03-04T04:36:26.509Z,86.38
2023-03-04T04:37:27.006Z,85.72
2023-03-04T04:37:54.200Z,86.13
2023-03-04T04:38:54.268Z,86.07
2023-03-04T04:39:54.181Z,86.13
2023-03-04T04:40:54.144Z,86.38
2023-03-04T04:41:54.187Z,85.93
2023-03-04T04:42:54.191Z,86.34
2023-03-04T04:43:55.087Z,86.49
2023-03-04T04:44:54.139Z,85.44
2023-03-04T04:45:54.187Z,86.07
2023-03-04T04:46:54.106Z,85.61
2023-03-04T04:47:54.139Z,86.44
2023-03-04T04:48:54.102Z,85.51
2023-03-04T04:49:54.113Z,86.03
2023-03-04T04:50:54.066Z,86.07
2023-03-04T04:51:54.089Z,85.72
2023-03-04T04:52:54.133Z,85.51
2023-03-04T04:53:54.059Z,85.41
2023-03-04T04:54:54.054Z,85.61
2023-03-04T04:55:54.029Z,85.61
2023-03-04T04:56:54.036Z,85.44
2023-03-04T04:57:54.022Z,85.30
2023-03-04T04:58:54.015Z,85.41
2023-03-04T04:59:54.002Z,85.51
2023-03-04T05:00:54.011Z,85.82
2023-03-04T05:01:54.091Z,85.82
2023-03-04T05:02:54.007Z,85.30
2023-03-04T05:03:53.996Z,85.44
2023-03-04T05:04:53.971Z,85.51
2023-03-04T05:05:53.947Z,85.72
2023-03-04T05:06:53.948Z,85.72
2023-03-04T05:07:54.037Z,85.44
2023-03-04T05:08:53.990Z,85.41
2023-03-04T05:09:54.205Z,85.30
2023-03-04T05:10:53.938Z,85.65
2023-03-04T05:11:53.917Z,85.72
2023-03-04T05:12:53.902Z,85.30
2023-03-04T05:13:53.903Z,85.55
2023-03-04T05:14:53.926Z,85.51
2023-03-04T05:15:54.104Z,85.82
2023-03-04T05:16:53.886Z,85.51
2023-03-04T05:17:53.901Z,85.86
2023-03-04T05:18:53.873Z,85.86
2023-03-04T05:19:53.906Z,85.41
2023-03-04T05:20:53.845Z,85.82
2023-03-04T05:21:53.935Z,85.51
2023-03-04T05:22:53.850Z,85.30
2023-03-04T05:23:53.843Z,85.30
2023-03-04T05:24:53.851Z,85.41
2023-03-04T05:25:55.480Z,85.44
2023-03-04T05:26:53.902Z,85.61
2023-03-04T05:27:53.978Z,85.51
2023-03-04T05:28:53.792Z,85.51
2023-03-04T05:29:53.804Z,85.82
2023-03-04T05:30:55.124Z,85.72
2023-03-04T05:31:53.774Z,85.30
2023-03-04T05:32:53.770Z,85.61
2023-03-04T05:33:53.783Z,85.51
2023-03-04T05:34:53.871Z,85.41
2023-03-04T05:35:53.838Z,85.51
2023-03-04T05:36:53.759Z,85.51
2023-03-04T05:37:53.746Z,85.61
2023-03-04T05:38:53.759Z,85.61
2023-03-04T05:39:53.745Z,85.30
2023-03-04T05:40:53.759Z,85.51
2023-03-04T05:41:53.734Z,85.30
2023-03-04T05:42:53.741Z,85.93
2023-03-04T05:43:53.705Z,86.44
2023-03-04T05:44:53.711Z,85.72
2023-03-04T05:45:53.713Z,85.51
2023-03-04T05:46:53.811Z,85.41
2023-03-04T05:47:53.716Z,85.30
2023-03-04T05:48:53.639Z,85.61
2023-03-04T05:49:53.722Z,85.55
2023-03-04T05:50:53.670Z,86.07
2023-03-04T05:51:53.669Z,85.82
2023-03-04T05:52:53.643Z,85.93
2023-03-04T05:53:53.636Z,85.51
2023-03-04T05:54:53.646Z,86.55
2023-03-04T05:55:53.603Z,86.13
2023-03-04T05:56:53.603Z,86.24
2023-03-04T05:57:53.610Z,86.24
2023-03-04T05:58:53.605Z,86.13
2023-03-04T05:59:53.735Z,86.34
2023-03-04T06:00:53.579Z,86.03
2023-03-04T06:01:53.598Z,86.34
2023-03-04T06:02:53.621Z,86.44
2023-03-04T06:03:53.612Z,86.65
2023-03-04T06:04:53.541Z,86.76
2023-03-04T06:05:53.568Z,85.57
2023-03-04T06:06:53.571Z,86.55
2023-03-04T06:07:53.534Z,86.55
2023-03-04T06:08:53.495Z,86.55
2023-03-04T06:09:53.502Z,85.61
2023-03-04T06:10:53.527Z,85.41
2023-03-04T06:11:53.513Z,85.51
2023-03-04T06:12:53.512Z,85.51
2023-03-04T06:13:53.509Z,85.51
2023-03-04T06:14:53.472Z,85.36
2023-03-04T06:15:53.525Z,85.20
2023-03-04T06:16:53.472Z,85.30
2023-03-04T06:17:53.515Z,85.72
2023-03-04T06:18:53.450Z,85.51
2023-03-04T06:19:53.423Z,85.51
2023-03-04T06:20:53.411Z,85.41
2023-03-04T06:21:53.439Z,85.36
2023-03-04T06:22:53.439Z,85.36
2023-03-04T06:23:53.432Z,85.57
2023-03-04T06:24:53.410Z,85.36
2023-03-04T06:25:53.396Z,85.41
2023-03-04T06:26:53.417Z,85.16
2023-03-04T06:27:55.146Z,85.26
2023-03-04T06:28:53.340Z,85.26
2023-03-04T06:29:53.443Z,85.47
2023-03-04T06:30:53.418Z,84.95
2023-03-04T06:31:53.405Z,85.10
2023-03-04T06:32:53.346Z,85.26
2023-03-04T06:33:53.308Z,85.05
2023-03-04T06:34:53.350Z,85.26
2023-03-04T06:35:53.390Z,85.16
2023-03-04T06:36:53.336Z,85.05
2023-03-04T06:37:53.371Z,85.47
2023-03-04T06:38:53.276Z,85.26
2023-03-04T06:39:53.280Z,85.26
2023-03-04T06:40:55.338Z,85.26
2023-03-04T06:41:53.274Z,84.74
2023-03-04T06:42:53.261Z,84.95
2023-03-04T06:43:53.241Z,85.12
2023-03-04T06:44:53.291Z,85.16
2023-03-04T06:45:53.290Z,84.81
2023-03-04T06:46:53.310Z,84.29
2023-03-04T06:47:53.234Z,84.50
2023-03-04T06:48:53.197Z,84.50
2023-03-04T06:49:53.211Z,84.74
2023-03-04T06:50:53.211Z,84.60
2023-03-04T06:51:53.223Z,84.74
2023-03-04T06:52:53.235Z,84.81
2023-03-04T06:53:53.177Z,84.74
2023-03-04T06:54:53.292Z,85.02
2023-03-04T06:55:53.241Z,85.02
2023-03-04T06:56:53.160Z,84.60
2023-03-04T06:57:53.173Z,84.60
2023-03-04T06:58:53.141Z,84.50
2023-03-04T06:59:53.133Z,84.91
2023-03-04T07:00:53.204Z,85.02
2023-03-04T07:01:53.092Z,84.70
2023-03-04T07:02:55.125Z,84.88
2023-03-04T07:03:54.122Z,85.02
2023-03-04T07:04:53.092Z,84.91
2023-03-04T07:05:53.148Z,85.08
2023-03-04T07:06:53.076Z,84.91
2023-03-04T07:07:53.124Z,84.50
2023-03-04T07:08:53.084Z,85.02
2023-03-04T07:09:53.069Z,84.60
2023-03-04T07:10:53.039Z,84.56
2023-03-04T07:11:53.048Z,84.88
2023-03-04T07:12:53.189Z,84.25
2023-03-04T07:13:53.117Z,84.25
2023-03-04T07:14:53.034Z,84.56
2023-03-04T07:15:53.015Z,84.15
2023-03-04T07:16:52.999Z,84.15
2023-03-04T07:17:52.997Z,84.15
2023-03-04T07:18:52.993Z,84.46
2023-03-04T07:19:53.009Z,84.15
2023-03-04T07:20:52.970Z,84.46
2023-03-04T07:21:52.986Z,83.84
2023-03-04T07:22:53.009Z,84.36
2023-03-04T07:23:52.973Z,84.56
2023-03-04T07:24:52.972Z,84.98
2023-03-04T07:25:52.922Z,84.88
2023-03-04T07:26:52.906Z,83.94
2023-03-04T07:27:53.927Z,84.46
2023-03-04T07:28:52.932Z,84.15
2023-03-04T07:29:52.932Z,84.15
2023-03-04T07:30:52.930Z,84.05
2023-03-04T07:31:53.832Z,84.46
2023-03-04T07:32:53.867Z,84.25
2023-03-04T07:33:52.892Z,84.46
2023-03-04T07:34:53.506Z,84.36
2023-03-04T07:35:52.988Z,83.94
2023-03-04T07:36:52.867Z,83.90
2023-03-04T07:37:52.852Z,84.21
2023-03-04T07:38:52.882Z,84.21
2023-03-04T07:39:52.893Z,84.42
2023-03-04T07:40:52.805Z,83.90
2023-03-04T07:41:52.817Z,83.48
2023-03-04T07:42:52.836Z,84.00
2023-03-04T07:43:52.837Z,84.42
2023-03-04T07:44:52.794Z,84.31
2023-03-04T07:45:52.867Z,83.80
2023-03-04T07:46:52.779Z,83.59
2023-03-04T07:47:52.841Z,83.80
2023-03-04T07:48:52.821Z,83.59
2023-03-04T07:49:52.758Z,83.90
2023-03-04T07:50:52.775Z,84.00
2023-03-04T07:51:52.734Z,83.90
2023-03-04T07:52:52.752Z,83.90
2023-03-04T07:53:52.810Z,84.00
2023-03-04T07:54:52.785Z,84.11
2023-03-04T07:55:52.754Z,83.80
2023-03-04T07:56:52.682Z,83.65
2023-03-04T07:57:52.704Z,84.07
2023-03-04T07:58:52.701Z,83.55
2023-03-04T07:59:52.679Z,83.55
2023-03-04T08:00:52.698Z,83.65
2023-03-04T08:01:52.659Z,83.65
2023-03-04T08:02:52.688Z,83.20
2023-03-04T08:03:52.703Z,83.45
2023-03-04T08:04:52.650Z,83.76
2023-03-04T08:05:52.636Z,83.65
2023-03-04T08:06:52.625Z,83.45
2023-03-04T08:07:52.646Z,83.65
2023-03-04T08:08:52.632Z,83.45
2023-03-04T08:09:53.140Z,83.62
2023-03-04T08:10:52.603Z,83.34
2023-03-04T08:11:52.585Z,83.86
2023-03-04T08:12:52.715Z,83.03
2023-03-04T08:13:52.592Z,83.14
2023-03-04T08:14:52.589Z,82.82
2023-03-04T08:15:52.603Z,83.55
2023-03-04T08:16:52.574Z,83.55
2023-03-04T08:17:52.532Z,82.51
2023-03-04T08:18:52.540Z,82.93
2023-03-04T08:19:52.665Z,82.51
2023-03-04T08:20:52.560Z,83.03
2023-03-04T08:21:52.534Z,82.48
2023-03-04T08:22:52.540Z,82.82
2023-03-04T08:23:52.597Z,82.68
2023-03-04T08:24:52.540Z,82.79
2023-03-04T08:25:52.594Z,83.34
2023-03-04T08:26:52.468Z,82.27
2023-03-04T08:27:52.468Z,82.58
2023-03-04T08:28:52.451Z,82.89
2023-03-04T08:29:52.472Z,82.48
2023-03-04T08:30:52.507Z,82.06
2023-03-04T08:31:52.550Z,82.58
2023-03-04T08:32:52.459Z,83.10
2023-03-04T08:33:52.469Z,82.89
2023-03-04T08:34:52.442Z,82.58
2023-03-04T08:35:52.485Z,82.37
2023-03-04T08:36:52.439Z,82.48
2023-03-04T08:37:52.380Z,83.00
2023-03-04T08:38:52.385Z,82.68
2023-03-04T08:39:52.373Z,82.37
2023-03-04T08:40:52.465Z,82.58
2023-03-04T08:41:52.360Z,82.54
2023-03-04T08:42:52.389Z,82.44
2023-03-04T08:43:52.332Z,82.44
2023-03-04T08:44:52.331Z,82.44
2023-03-04T08:45:52.370Z,82.03
2023-03-04T08:46:52.319Z,82.03
2023-03-04T08:47:52.342Z,81.88
2023-03-04T08:48:52.324Z,81.99
2023-03-04T08:49:52.305Z,81.99
2023-03-04T08:50:52.360Z,82.54
2023-03-04T08:51:52.539Z,82.44
2023-03-04T08:52:52.280Z,82.54
2023-03-04T08:53:52.398Z,82.54
2023-03-04T08:54:52.281Z,82.34
2023-03-04T08:55:52.362Z,82.19
2023-03-04T08:56:52.374Z,82.34
2023-03-04T08:57:52.229Z,82.34
2023-03-04T08:58:52.261Z,82.44
2023-03-04T08:59:52.237Z,82.09
2023-03-04T09:00:52.226Z,82.40
2023-03-04T09:01:52.325Z,82.81
2023-03-04T09:02:52.202Z,82.71
2023-03-04T09:03:52.288Z,82.86
2023-03-04T09:04:52.179Z,82.81
2023-03-04T09:05:52.161Z,82.50
2023-03-04T09:06:54.078Z,82.34
2023-03-04T09:07:53.164Z,82.29
2023-03-04T09:08:53.193Z,82.29
2023-03-04T09:09:52.217Z,82.40
2023-03-04T09:10:52.139Z,82.09
2023-03-04T09:11:52.207Z,82.46
2023-03-04T09:12:52.129Z,82.26
2023-03-04T09:13:52.265Z,81.84
2023-03-04T09:15:08.397Z,81.84
2023-03-04T09:15:54.274Z,82.26
2023-03-04T09:16:52.114Z,81.74
2023-03-04T09:17:52.108Z,81.64
2023-03-04T09:18:52.269Z,81.70
2023-03-04T09:19:52.094Z,81.74
2023-03-04T09:20:52.129Z,81.84
2023-03-04T09:21:52.109Z,82.22
2023-03-04T09:22:52.061Z,82.05
2023-03-04T09:23:52.132Z,82.12
2023-03-04T09:24:52.049Z,81.91
2023-03-04T09:25:52.077Z,82.22
2023-03-04T09:26:52.036Z,81.81
2023-03-04T09:27:52.078Z,81.70
2023-03-04T09:28:52.048Z,82.22
2023-03-04T09:29:52.006Z,81.91
2023-03-04T09:30:51.990Z,81.81
2023-03-04T09:31:51.983Z,81.49
2023-03-04T09:32:52.006Z,81.77
2023-03-04T09:33:52.044Z,81.67
2023-03-04T09:34:51.970Z,81.67
2023-03-04T09:35:52.003Z,81.87
2023-03-04T09:36:51.968Z,81.25
2023-03-04T09:38:24.571Z,81.35
2023-03-04T09:38:51.944Z,81.18
2023-03-04T09:40:23.939Z,80.39
2023-03-04T09:40:51.958Z,79.73
2023-03-04T09:41:51.921Z,79.83
2023-03-04T09:42:52.535Z,80.04
2023-03-04T09:43:51.898Z,79.90
2023-03-04T09:44:51.927Z,77.87
2023-03-04T09:45:51.868Z,78.18
2023-03-04T09:46:51.984Z,78.97
2023-03-04T09:47:51.859Z,77.91
2023-03-04T09:48:51.874Z,77.49
2023-03-04T09:49:51.996Z,78.01
2023-03-04T09:50:51.850Z,77.49
2023-03-04T09:51:51.830Z,77.59
2023-03-04T09:52:51.841Z,77.08
2023-03-04T09:53:51.829Z,77.18
2023-03-04T09:54:51.814Z,76.94
2023-03-04T09:55:51.783Z,76.56
2023-03-04T09:56:51.821Z,77.18
2023-03-04T09:57:51.779Z,77.49
2023-03-04T09:58:51.760Z,78.73
2023-03-04T09:59:51.784Z,78.73
2023-03-04T10:00:52.046Z,78.73
2023-03-04T10:01:51.769Z,78.56
2023-03-04T10:02:51.827Z,79.59
2023-03-04T10:03:51.889Z,79.59
2023-03-04T10:04:51.832Z,79.59
2023-03-04T10:06:24.685Z,79.80
2023-03-04T10:07:24.193Z,79.04
2023-03-04T10:07:51.684Z,78.77
2023-03-04T10:08:51.698Z,77.80
2023-03-04T10:09:51.725Z,78.21
2023-03-04T10:10:51.739Z,78.28
2023-03-04T10:11:51.672Z,77.97
2023-03-04T10:12:51.677Z,77.80
2023-03-04T10:13:51.647Z,78.01
2023-03-04T10:14:51.633Z,78.31
2023-03-04T10:15:51.698Z,78.73
2023-03-04T10:16:51.637Z,78.73
2023-03-04T10:17:51.642Z,77.80
2023-03-04T10:18:51.610Z,78.31
2023-03-04T10:19:51.677Z,77.91
2023-03-04T10:20:51.621Z,78.11
2023-03-04T10:21:51.600Z,78.21
2023-03-04T10:22:51.580Z,78.59
2023-03-04T10:23:52.316Z,77.97
2023-03-04T10:24:51.561Z,78.31
2023-03-04T10:25:51.549Z,78.08
2023-03-04T10:27:23.476Z,77.76
2023-03-04T10:27:51.610Z,77.15
2023-03-04T10:28:51.533Z,77.11
2023-03-04T10:29:51.529Z,76.59
2023-03-04T10:30:51.500Z,77.04
2023-03-04T10:31:51.592Z,77.01
2023-03-04T10:32:51.519Z,76.90
2023-03-04T10:33:51.470Z,76.63
2023-03-04T10:34:51.485Z,77.42
2023-03-04T10:35:51.464Z,77.42
2023-03-04T10:36:51.451Z,76.29
2023-03-04T10:37:51.458Z,76.46
2023-03-04T10:38:51.437Z,76.39
2023-03-04T10:39:51.426Z,76.90
2023-03-04T10:40:51.441Z,76.80
2023-03-04T10:41:51.473Z,76.73
2023-03-04T10:42:51.395Z,77.04
2023-03-04T10:43:51.411Z,77.83
2023-03-04T10:44:51.375Z,77.62
2023-03-04T10:45:51.418Z,77.04
2023-03-04T10:46:51.369Z,76.94
2023-03-04T10:47:51.420Z,77.56
2023-03-04T10:48:51.374Z,78.28
2023-03-04T10:49:52.300Z,77.87
2023-03-04T10:50:51.341Z,77.62
2023-03-04T10:51:51.345Z,78.28
2023-03-04T10:52:51.333Z,77.35
2023-03-04T10:53:51.305Z,77.97
2023-03-04T10:54:51.319Z,77.04
2023-03-04T10:55:51.310Z,77.70
2023-03-04T10:56:51.296Z,77.91
2023-03-04T10:57:51.302Z,78.42
2023-03-04T10:58:51.273Z,78.69
2023-03-04T10:59:51.291Z,78.80
2023-03-04T11:00:51.271Z,77.73
2023-03-04T11:01:51.270Z,77.73
2023-03-04T11:02:51.225Z,77.66
2023-03-04T11:03:51.277Z,77.97
2023-03-04T11:04:51.282Z,78.28
2023-03-04T11:05:51.215Z,78.04
2023-03-04T11:06:51.211Z,77.83
2023-03-04T11:07:56.733Z,77.83
2023-03-04T11:08:53.188Z,78.04
2023-03-04T11:09:51.242Z,77.62
2023-03-04T11:10:51.214Z,78.14
2023-03-04T11:11:51.212Z,78.24
2023-03-04T11:12:51.174Z,78.14
2023-03-04T11:13:51.154Z,77.76
2023-03-04T11:14:51.159Z,78.14
2023-03-04T11:15:51.178Z,78.80
2023-03-04T11:16:51.165Z,77.94
2023-03-04T11:17:51.130Z,77.83
2023-03-04T11:18:51.136Z,77.83
2023-03-04T11:19:51.119Z,78.24
2023-03-04T11:20:51.109Z,77.97
2023-03-04T11:21:51.716Z,77.94
2023-03-04T11:22:51.076Z,78.14
2023-03-04T11:23:51.084Z,77.73
2023-03-04T11:24:51.099Z,77.69
2023-03-04T11:25:51.079Z,77.11
2023-03-04T11:26:51.068Z,77.52
2023-03-04T11:27:51.069Z,77.48
2023-03-04T11:28:51.029Z,77.04
2023-03-04T11:29:51.032Z,77.56
2023-03-04T11:30:51.059Z,78.52
2023-03-04T11:31:51.044Z,79.45
2023-03-04T11:32:51.040Z,79.52
2023-03-04T11:33:51.046Z,79.25
2023-03-04T11:34:51.026Z,79.04
2023-03-04T11:35:50.982Z,79.11
2023-03-04T11:36:51.248Z,78.90
2023-03-04T11:37:50.993Z,79.11
2023-03-04T11:38:50.964Z,78.90
2023-03-04T11:39:50.984Z,79.83
2023-03-04T11:40:50.954Z,79.62
2023-03-04T11:41:50.956Z,78.45
2023-03-04T11:42:50.995Z,77.94
2023-03-04T11:43:50.963Z,77.83
2023-03-04T11:44:50.959Z,77.80
2023-03-04T11:45:50.950Z,78.04
2023-03-04T11:46:50.933Z,77.73
2023-03-04T11:47:51.067Z,78.24
2023-03-04T11:48:50.965Z,78.59
2023-03-04T11:49:50.915Z,79.11
2023-03-04T11:50:50.915Z,79.41
2023-03-04T11:51:50.899Z,79.69
2023-03-04T11:52:50.936Z,79.27
2023-03-04T11:53:50.927Z,78.86
2023-03-04T11:54:50.897Z,79.58
2023-03-04T11:55:50.887Z,79.83
2023-03-04T11:56:50.848Z,79.52
2023-03-04T11:57:50.863Z,80.34
2023-03-04T11:58:50.879Z,79.93
2023-03-04T11:59:50.839Z,79.72
2023-03-04T12:00:50.842Z,80.34
2023-03-04T12:01:50.827Z,80.18
2023-03-04T12:02:50.808Z,80.90
2023-03-04T12:03:50.924Z,80.79
2023-03-04T12:04:50.838Z,80.90
2023-03-04T12:05:50.795Z,80.48
2023-03-04T12:06:50.786Z,80.65
2023-03-04T12:07:50.767Z,80.44
2023-03-04T12:08:50.766Z,81.27
2023-03-04T12:09:50.767Z,80.86
2023-03-04T12:10:50.964Z,80.34
2023-03-04T12:11:50.774Z,80.04
2023-03-04T12:12:50.718Z,80.14
2023-03-04T12:13:50.725Z,80.38
2023-03-04T12:14:50.712Z,79.66
2023-03-04T12:15:50.771Z,80.55
2023-03-04T12:16:50.693Z,81.07
2023-03-04T12:17:50.767Z,80.14
2023-03-04T12:18:50.834Z,79.62
2023-03-04T12:19:50.671Z,80.34
2023-03-04T12:20:50.670Z,80.04
2023-03-04T12:21:50.656Z,80.24
2023-03-04T12:22:50.650Z,79.93
2023-03-04T12:23:50.700Z,80.14
2023-03-04T12:24:50.650Z,79.72
2023-03-04T12:25:50.661Z,80.14
2023-03-04T12:26:50.636Z,80.00
2023-03-04T12:27:50.613Z,79.79
2023-03-04T12:28:50.622Z,79.41
2023-03-04T12:29:50.609Z,79.83
2023-03-04T12:30:50.645Z,79.93
2023-03-04T12:31:50.628Z,79.62
2023-03-04T12:32:50.622Z,79.93
2023-03-04T12:33:50.587Z,80.07
2023-03-04T12:34:50.558Z,79.55
2023-03-04T12:35:50.771Z,80.32
2023-03-04T12:36:50.559Z,80.93
2023-03-04T12:37:50.558Z,81.21
2023-03-04T12:38:50.530Z,80.90
2023-03-04T12:39:50.683Z,80.48
2023-03-04T12:40:50.599Z,80.58
2023-03-04T12:41:50.506Z,81.10
2023-03-04T12:42:50.543Z,81.00
2023-03-04T12:43:50.544Z,80.14
2023-03-04T12:44:50.500Z,79.66
2023-03-04T12:45:50.545Z,80.34
2023-03-04T12:46:50.538Z,79.72
2023-03-04T12:47:50.497Z,79.72
2023-03-04T12:48:50.482Z,80.14
2023-03-04T12:49:50.486Z,80.04
2023-03-04T12:50:50.468Z,80.34
2023-03-04T12:51:50.430Z,79.72
2023-03-04T12:52:50.432Z,80.30
2023-03-04T12:53:50.436Z,79.93
2023-03-04T12:54:50.453Z,79.38
2023-03-04T12:55:50.422Z,80.30
2023-03-04T12:56:50.418Z,79.27
2023-03-04T12:57:50.391Z,79.27
2023-03-04T12:58:50.407Z,79.38
2023-03-04T12:59:50.392Z,79.27
2023-03-04T13:00:50.409Z,79.58
2023-03-04T13:01:50.380Z,79.58
2023-03-04T13:02:50.440Z,79.79
2023-03-04T13:03:50.386Z,79.27
2023-03-04T13:04:50.370Z,79.55
2023-03-04T13:05:50.345Z,79.65
2023-03-04T13:06:50.369Z,79.90
2023-03-04T13:07:50.310Z,79.69